createdAt,value
2018-03-15T00:02:30.659Z,7.16
2018-03-15T00:08:21.395Z,7.4
2018-03-15T00:14:12.053Z,6.53
2018-03-15T00:20:03.000Z,7.91
2018-03-15T00:25:53.484Z,6.86
2018-03-15T00:31:44.160Z,6.12
2018-03-15T00:37:34.852Z,6.41
2018-03-15T00:43:25.593Z,7
2018-03-15T00:49:16.270Z,7.41
2018-03-15T00:55:07.019Z,6.47
2018-03-15T01:00:57.724Z,5.93
2018-03-15T01:06:48.400Z,5.92
2018-03-15T01:12:39.218Z,5.96
2018-03-15T01:18:29.807Z,15.66
2018-03-15T01:24:20.539Z,5.97
2018-03-15T01:30:11.252Z,6.31
2018-03-15T01:36:01.942Z,5.68
2018-03-15T01:41:52.654Z,5.9
2018-03-15T01:47:43.350Z,5.36
2018-03-15T01:53:34.101Z,5.11
2018-03-15T01:59:24.724Z,4.93
2018-03-15T02:05:15.428Z,4.72
2018-03-15T02:11:06.163Z,4.47
2018-03-15T02:16:56.855Z,5.29
2018-03-15T02:22:47.592Z,4.6
2018-03-15T02:28:38.295Z,4.47
2018-03-15T02:34:28.971Z,5.46
2018-03-15T02:40:19.707Z,5.15
2018-03-15T02:46:10.382Z,5.3
2018-03-15T02:52:01.094Z,5.51
2018-03-15T02:57:51.785Z,4.65
2018-03-15T03:03:42.509Z,4.73
2018-03-15T03:09:33.191Z,5.22
2018-03-15T03:15:23.892Z,5.02
2018-03-15T03:21:14.573Z,3.98
2018-03-15T03:27:05.287Z,4.8
2018-03-15T03:32:55.975Z,4.06
2018-03-15T03:38:46.674Z,4.94
2018-03-15T03:44:37.380Z,4.6
2018-03-15T03:50:28.134Z,4.9
2018-03-15T03:56:18.772Z,5.05
2018-03-15T04:02:09.476Z,9.13
2018-03-15T04:08:00.193Z,9
2018-03-15T04:13:50.905Z,8.7
2018-03-15T04:19:41.575Z,7.06
2018-03-15T04:25:32.259Z,6.55
2018-03-15T04:31:22.974Z,7.86
2018-03-15T04:37:13.675Z,7.53
2018-03-15T04:43:04.400Z,8.04
2018-03-15T04:48:55.088Z,7.19
2018-03-15T04:54:45.823Z,6.48
2018-03-15T05:00:36.514Z,7.67
2018-03-15T05:06:27.182Z,8.32
2018-03-15T05:12:17.888Z,6.12
2018-03-15T05:18:08.598Z,5.7
2018-03-15T05:23:59.286Z,6.6
2018-03-15T05:29:50.076Z,5.51
2018-03-15T05:35:40.691Z,5.59
2018-03-15T05:41:31.374Z,5.39
2018-03-15T05:47:22.067Z,7.04
2018-03-15T05:53:12.790Z,5.66
2018-03-15T05:59:03.447Z,4.14
2018-03-15T06:04:54.164Z,4.59
2018-03-15T06:10:44.844Z,4.2
2018-03-15T06:16:35.536Z,4.3
2018-03-15T06:22:26.280Z,3.61
2018-03-15T06:28:16.973Z,4.18
2018-03-15T06:34:07.669Z,3.75
2018-03-15T06:39:58.339Z,4.73
2018-03-15T06:45:49.026Z,5.18
2018-03-15T06:51:39.738Z,5.19
2018-03-15T06:57:30.534Z,5.89
2018-03-15T07:03:21.117Z,5.63
2018-03-15T07:09:11.866Z,5.37
2018-03-15T07:15:02.726Z,6.61
2018-03-15T07:20:53.226Z,5.81
2018-03-15T07:26:43.933Z,6.3
2018-03-15T07:32:34.642Z,5
2018-03-15T07:38:25.338Z,5.78
2018-03-15T07:44:16.003Z,6.16
2018-03-15T07:50:06.706Z,6.78
2018-03-15T07:55:57.376Z,6.6
2018-03-15T08:01:48.095Z,6.95
2018-03-15T08:07:38.748Z,8.73
2018-03-15T08:13:29.567Z,11.3
2018-03-15T08:19:20.149Z,16.29
2018-03-15T08:25:10.879Z,14.44
2018-03-15T08:31:01.575Z,22.64
2018-03-15T08:36:52.304Z,23.35
2018-03-15T08:42:42.956Z,20.88
2018-03-15T08:48:33.658Z,20.67
2018-03-15T08:54:24.417Z,18.39
2018-03-15T09:00:15.160Z,12.69
2018-03-15T09:06:05.931Z,14.27
2018-03-15T09:11:56.492Z,14.37
2018-03-15T09:17:47.152Z,14.11
2018-03-15T09:23:37.909Z,10.63
2018-03-15T09:29:28.532Z,11.49
2018-03-15T09:35:19.290Z,9.56
2018-03-15T09:41:09.947Z,10.34
2018-03-15T09:47:00.657Z,9.42
2018-03-15T09:52:51.431Z,9.74
2018-03-15T09:58:42.098Z,10.04
2018-03-15T10:04:32.770Z,8.9
2018-03-15T10:10:23.527Z,8.15
2018-03-15T10:16:14.256Z,5.31
2018-03-15T10:22:04.913Z,5.27
2018-03-15T10:27:55.563Z,3.95
2018-03-15T10:33:46.295Z,5.09
2018-03-15T10:39:37.081Z,5.31
2018-03-15T10:45:27.700Z,5.45
2018-03-15T10:51:18.476Z,3.53
2018-03-15T10:57:09.111Z,4.53
2018-03-15T11:02:59.897Z,3.78
2018-03-15T11:08:50.501Z,4.99
2018-03-15T11:14:41.241Z,3.46
2018-03-15T11:20:31.940Z,4.28
2018-03-15T11:26:22.658Z,4.06
2018-03-15T11:32:13.315Z,4.73
2018-03-15T11:38:04.115Z,4.97
2018-03-15T11:43:54.774Z,4.63
2018-03-15T11:49:45.469Z,4.52
2018-03-15T11:55:36.177Z,6.48
2018-03-15T12:01:26.841Z,8.85
2018-03-15T12:07:17.538Z,7.15
2018-03-15T12:13:08.298Z,6.53
2018-03-15T12:18:58.943Z,7.68
2018-03-15T12:24:49.655Z,6.63
2018-03-15T12:30:40.367Z,6.44
2018-03-15T12:36:31.041Z,7.05
2018-03-15T12:42:21.810Z,6.8
2018-03-15T12:48:12.485Z,5.92
2018-03-15T12:54:03.154Z,7.07
2018-03-15T12:59:53.855Z,6.55
2018-03-15T13:05:44.583Z,6.44
2018-03-15T13:11:35.304Z,6.7
2018-03-15T13:17:25.985Z,11.45
2018-03-15T13:23:16.733Z,10.79
2018-03-15T13:29:07.365Z,11.1
2018-03-15T13:34:58.097Z,10.77
2018-03-15T13:40:48.854Z,9.15
2018-03-15T13:46:39.583Z,9.98
2018-03-15T13:52:30.253Z,8.88
2018-03-15T13:58:20.956Z,8.45
2018-03-15T14:04:11.593Z,9.83
2018-03-15T14:10:02.432Z,12.09
2018-03-15T14:15:53.050Z,10.4
2018-03-15T14:21:43.737Z,10.59
2018-03-15T14:27:34.386Z,10.31
2018-03-15T14:33:25.117Z,10.23
2018-03-15T14:39:15.799Z,10.27
2018-03-15T14:45:06.480Z,10.98
2018-03-15T14:50:57.221Z,10.71
2018-03-15T14:56:47.896Z,11.14
2018-03-15T15:02:38.628Z,10.76
2018-03-15T15:08:29.315Z,10.87
2018-03-15T15:14:19.995Z,11.39
2018-03-15T15:20:10.721Z,12.11
2018-03-15T15:26:01.450Z,10.15
2018-03-15T15:31:52.131Z,10.83
2018-03-15T15:37:42.846Z,12.37
2018-03-15T15:43:33.601Z,8.39
2018-03-15T15:49:24.204Z,9.36
2018-03-15T15:55:14.983Z,10.07
2018-03-15T16:01:05.591Z,9.79
2018-03-15T16:06:56.306Z,10.22
2018-03-15T16:12:47.017Z,10.75
2018-03-15T16:18:37.685Z,8.65
2018-03-15T16:24:28.439Z,8.11
2018-03-15T16:30:19.081Z,6.33
2018-03-15T16:36:09.797Z,6.32
2018-03-15T16:42:00.467Z,5.68
2018-03-15T16:47:51.261Z,4.3
2018-03-15T16:53:41.855Z,4.12
2018-03-15T16:59:32.572Z,5.35
2018-03-15T17:05:23.261Z,3.92
2018-03-15T17:11:14.011Z,3.59
2018-03-15T17:17:04.709Z,4.07
2018-03-15T17:22:55.372Z,3.36
2018-03-15T17:28:46.079Z,3.55
2018-03-15T17:34:36.776Z,3.94
2018-03-15T17:40:27.509Z,4.8
2018-03-15T17:46:18.146Z,4.07
2018-03-15T17:52:08.837Z,3.98
2018-03-15T17:57:59.548Z,4.59
2018-03-15T18:03:50.271Z,4.65
2018-03-15T18:09:40.968Z,3.88
2018-03-15T18:15:31.640Z,3.52
2018-03-15T18:21:22.403Z,13.49
2018-03-15T18:27:13.088Z,3.39
2018-03-15T18:33:03.799Z,8.04
2018-03-15T18:38:54.479Z,4.21
2018-03-15T18:44:45.164Z,5.56
2018-03-15T18:50:35.880Z,6.99
2018-03-15T18:56:26.588Z,3.16
2018-03-15T19:02:17.320Z,4.96
2018-03-15T19:08:07.938Z,3.46
2018-03-15T19:13:58.699Z,6.25
2018-03-15T19:19:49.336Z,3.16
2018-03-15T19:25:40.085Z,4.53
2018-03-15T19:31:30.739Z,2.9
2018-03-15T19:37:21.465Z,2.73
2018-03-15T19:43:12.154Z,3.49
2018-03-15T19:49:02.843Z,2.93
2018-03-15T19:54:53.541Z,3.97
2018-03-15T20:00:44.270Z,4.1
2018-03-15T20:06:34.942Z,5.21
2018-03-15T20:12:25.673Z,3.26
2018-03-15T20:18:16.361Z,2.5
2018-03-15T20:24:07.035Z,2.44
2018-03-15T20:29:57.714Z,2.1
2018-03-15T20:35:48.484Z,2.06
2018-03-15T20:41:39.119Z,1.85
2018-03-15T20:47:29.802Z,2.28
2018-03-15T20:53:20.586Z,1.85
2018-03-15T20:59:11.223Z,4.07
2018-03-15T21:05:01.948Z,4.45
2018-03-15T21:10:52.636Z,2.97
2018-03-15T21:16:43.312Z,2.03
2018-03-15T21:22:33.968Z,1.97
2018-03-15T21:28:24.717Z,3.42
2018-03-15T21:34:15.390Z,3.35
2018-03-15T21:40:06.097Z,4.56
2018-03-15T21:45:56.854Z,2.92
2018-03-15T21:51:47.493Z,1.95
2018-03-15T21:57:38.162Z,1.62
2018-03-15T22:03:28.881Z,1.72
2018-03-15T22:09:19.587Z,1.64
2018-03-15T22:15:10.343Z,2.61
2018-03-15T22:21:01.001Z,1.73
2018-03-15T22:26:51.695Z,1.54
2018-03-15T22:32:42.415Z,1.6
2018-03-15T22:38:33.091Z,12.59
2018-03-15T22:44:23.791Z,3.82
2018-03-15T22:50:14.533Z,3.09
2018-03-15T22:56:05.159Z,5.89
2018-03-15T23:01:55.900Z,2.61
2018-03-15T23:07:46.662Z,1.5
2018-03-15T23:13:37.363Z,1.68
2018-03-15T23:19:27.998Z,1.37
2018-03-15T23:25:18.699Z,1.06
2018-03-15T23:31:09.377Z,1.2
2018-03-15T23:37:00.192Z,1.42
2018-03-15T23:42:50.821Z,1.36
2018-03-15T23:48:41.547Z,1.19
2018-03-15T23:54:32.167Z,2.13
